<?xml version="1.0" encoding="UTF-8" standalone="no" ?>
<gpx xmlns="http://www.topografix.com/GPX/1/1" xmlns:xsi="http://www.w3.org/2001/XMLSchema-instance" xsi:schemaLocation="http://www.topografix.com/GPX/1/1 http://www.topografix.com/GPX/1/1/gpx.xsd" version="1.1" creator="VisuGPX - https://www.visugpx.com">
  <metadata>
    <name>Fixing les 100 marches</name>
  </metadata>
  <wpt lat="47.25142" lon="4.94916">
    <ele>478.01</ele>
    <name><![CDATA[Arrêt de ~2 min]]></name>
    <desc><![CDATA[Altitude: 478 m
Durée depuis le départ: 00:28:40
Distance depuis le départ: 1,48 km]]></desc>
  </wpt>
  <trk>
    <name><![CDATA[9 juin 2025 14:29:58]]></name>
    <trkseg>
      <trkpt lat="47.24561" lon="4.96547">
        <ele>393.76</ele>
        <time>2025-06-09T12:30:08Z</time>
      </trkpt>
      <trkpt lat="47.24555" lon="4.96537">
        <ele>377.38</ele>
        <time>2025-06-09T12:30:31Z</time>
      </trkpt>
      <trkpt lat="47.24556" lon="4.96523">
        <ele>379.57</ele>
        <time>2025-06-09T12:30:40Z</time>
      </trkpt>
      <trkpt lat="47.24562" lon="4.96512">
        <ele>379.04</ele>
        <time>2025-06-09T12:30:48Z</time>
      </trkpt>
      <trkpt lat="47.24567" lon="4.96501">
        <ele>380.81</ele>
        <time>2025-06-09T12:30:56Z</time>
      </trkpt>
      <trkpt lat="47.24571" lon="4.96489">
        <ele>382.08</ele>
        <time>2025-06-09T12:31:05Z</time>
      </trkpt>
      <trkpt lat="47.24573" lon="4.96475">
        <ele>384.72</ele>
        <time>2025-06-09T12:31:14Z</time>
      </trkpt>
      <trkpt lat="47.24575" lon="4.96462">
        <ele>385.88</ele>
        <time>2025-06-09T12:31:23Z</time>
      </trkpt>
      <trkpt lat="47.24578" lon="4.96449">
        <ele>386.35</ele>
        <time>2025-06-09T12:31:32Z</time>
      </trkpt>
      <trkpt lat="47.2458" lon="4.96435">
        <ele>387.56</ele>
        <time>2025-06-09T12:31:41Z</time>
      </trkpt>
      <trkpt lat="47.24583" lon="4.96422">
        <ele>386.84</ele>
        <time>2025-06-09T12:31:50Z</time>
      </trkpt>
      <trkpt lat="47.24585" lon="4.96408">
        <ele>387.62</ele>
        <time>2025-06-09T12:31:57Z</time>
      </trkpt>
      <trkpt lat="47.24586" lon="4.96393">
        <ele>388.72</ele>
        <time>2025-06-09T12:32:06Z</time>
      </trkpt>
      <trkpt lat="47.24585" lon="4.96379">
        <ele>391.35</ele>
        <time>2025-06-09T12:32:15Z</time>
      </trkpt>
      <trkpt lat="47.24586" lon="4.96366">
        <ele>389.83</ele>
        <time>2025-06-09T12:32:23Z</time>
      </trkpt>
      <trkpt lat="47.24588" lon="4.96352">
        <ele>391.65</ele>
        <time>2025-06-09T12:32:32Z</time>
      </trkpt>
      <trkpt lat="47.2459" lon="4.96339">
        <ele>388.88</ele>
        <time>2025-06-09T12:32:42Z</time>
      </trkpt>
      <trkpt lat="47.24588" lon="4.96324">
        <ele>387.6</ele>
        <time>2025-06-09T12:32:52Z</time>
      </trkpt>
      <trkpt lat="47.2459" lon="4.9631">
        <ele>386.32</ele>
        <time>2025-06-09T12:33:02Z</time>
      </trkpt>
      <trkpt lat="47.24591" lon="4.96296">
        <ele>386.53</ele>
        <time>2025-06-09T12:33:09Z</time>
      </trkpt>
      <trkpt lat="47.24595" lon="4.96283">
        <ele>386.15</ele>
        <time>2025-06-09T12:33:19Z</time>
      </trkpt>
      <trkpt lat="47.24599" lon="4.9627">
        <ele>385.82</ele>
        <time>2025-06-09T12:33:29Z</time>
      </trkpt>
      <trkpt lat="47.246" lon="4.96256">
        <ele>389.34</ele>
        <time>2025-06-09T12:33:38Z</time>
      </trkpt>
      <trkpt lat="47.24604" lon="4.96242">
        <ele>385.29</ele>
        <time>2025-06-09T12:33:47Z</time>
      </trkpt>
      <trkpt lat="47.24607" lon="4.96229">
        <ele>386.42</ele>
        <time>2025-06-09T12:33:54Z</time>
      </trkpt>
      <trkpt lat="47.24609" lon="4.96213">
        <ele>387.8</ele>
        <time>2025-06-09T12:34:04Z</time>
      </trkpt>
      <trkpt lat="47.2461" lon="4.96199">
        <ele>388.04</ele>
        <time>2025-06-09T12:34:13Z</time>
      </trkpt>
      <trkpt lat="47.24614" lon="4.96185">
        <ele>388.9</ele>
        <time>2025-06-09T12:34:23Z</time>
      </trkpt>
      <trkpt lat="47.24619" lon="4.96174">
        <ele>391.53</ele>
        <time>2025-06-09T12:34:31Z</time>
      </trkpt>
      <trkpt lat="47.24624" lon="4.96162">
        <ele>391.23</ele>
        <time>2025-06-09T12:34:39Z</time>
      </trkpt>
      <trkpt lat="47.24625" lon="4.96147">
        <ele>390.28</ele>
        <time>2025-06-09T12:34:49Z</time>
      </trkpt>
      <trkpt lat="47.24627" lon="4.96134">
        <ele>392.79</ele>
        <time>2025-06-09T12:34:57Z</time>
      </trkpt>
      <trkpt lat="47.24626" lon="4.9612">
        <ele>391.85</ele>
        <time>2025-06-09T12:35:06Z</time>
      </trkpt>
      <trkpt lat="47.24628" lon="4.96106">
        <ele>388.56</ele>
        <time>2025-06-09T12:35:15Z</time>
      </trkpt>
      <trkpt lat="47.24631" lon="4.96092">
        <ele>389.93</ele>
        <time>2025-06-09T12:35:24Z</time>
      </trkpt>
      <trkpt lat="47.24634" lon="4.96079">
        <ele>390.09</ele>
        <time>2025-06-09T12:35:33Z</time>
      </trkpt>
      <trkpt lat="47.24637" lon="4.96065">
        <ele>391.04</ele>
        <time>2025-06-09T12:35:41Z</time>
      </trkpt>
      <trkpt lat="47.24641" lon="4.96053">
        <ele>391.06</ele>
        <time>2025-06-09T12:35:51Z</time>
      </trkpt>
      <trkpt lat="47.24643" lon="4.96039">
        <ele>392.18</ele>
        <time>2025-06-09T12:36:00Z</time>
      </trkpt>
      <trkpt lat="47.24648" lon="4.96027">
        <ele>392.9</ele>
        <time>2025-06-09T12:36:09Z</time>
      </trkpt>
      <trkpt lat="47.2465" lon="4.96014">
        <ele>393.99</ele>
        <time>2025-06-09T12:36:19Z</time>
      </trkpt>
      <trkpt lat="47.24651" lon="4.96001">
        <ele>396.64</ele>
        <time>2025-06-09T12:36:27Z</time>
      </trkpt>
      <trkpt lat="47.24653" lon="4.95988">
        <ele>395.05</ele>
        <time>2025-06-09T12:36:37Z</time>
      </trkpt>
      <trkpt lat="47.24655" lon="4.95974">
        <ele>393.97</ele>
        <time>2025-06-09T12:36:46Z</time>
      </trkpt>
      <trkpt lat="47.24656" lon="4.95961">
        <ele>392.96</ele>
        <time>2025-06-09T12:36:55Z</time>
      </trkpt>
      <trkpt lat="47.24661" lon="4.95948">
        <ele>390.04</ele>
        <time>2025-06-09T12:37:05Z</time>
      </trkpt>
      <trkpt lat="47.24665" lon="4.95935">
        <ele>393.32</ele>
        <time>2025-06-09T12:37:15Z</time>
      </trkpt>
      <trkpt lat="47.24668" lon="4.95922">
        <ele>392.4</ele>
        <time>2025-06-09T12:37:24Z</time>
      </trkpt>
      <trkpt lat="47.24672" lon="4.95909">
        <ele>394.27</ele>
        <time>2025-06-09T12:37:33Z</time>
      </trkpt>
      <trkpt lat="47.24674" lon="4.95896">
        <ele>394.56</ele>
        <time>2025-06-09T12:38:40Z</time>
      </trkpt>
      <trkpt lat="47.24681" lon="4.95886">
        <ele>393.15</ele>
        <time>2025-06-09T12:38:51Z</time>
      </trkpt>
      <trkpt lat="47.24684" lon="4.9587">
        <ele>389.67</ele>
        <time>2025-06-09T12:39:04Z</time>
      </trkpt>
      <trkpt lat="47.2469" lon="4.95859">
        <ele>389.52</ele>
        <time>2025-06-09T12:39:12Z</time>
      </trkpt>
      <trkpt lat="47.24696" lon="4.95848">
        <ele>389.3</ele>
        <time>2025-06-09T12:39:20Z</time>
      </trkpt>
      <trkpt lat="47.24702" lon="4.95838">
        <ele>390.47</ele>
        <time>2025-06-09T12:39:28Z</time>
      </trkpt>
      <trkpt lat="47.24706" lon="4.95825">
        <ele>392.15</ele>
        <time>2025-06-09T12:39:37Z</time>
      </trkpt>
      <trkpt lat="47.2471" lon="4.95813">
        <ele>392.58</ele>
        <time>2025-06-09T12:39:46Z</time>
      </trkpt>
      <trkpt lat="47.24716" lon="4.95802">
        <ele>392.69</ele>
        <time>2025-06-09T12:39:54Z</time>
      </trkpt>
      <trkpt lat="47.24721" lon="4.9579">
        <ele>394.61</ele>
        <time>2025-06-09T12:40:01Z</time>
      </trkpt>
      <trkpt lat="47.24724" lon="4.95776">
        <ele>397.1</ele>
        <time>2025-06-09T12:40:10Z</time>
      </trkpt>
      <trkpt lat="47.24729" lon="4.95764">
        <ele>398.8</ele>
        <time>2025-06-09T12:40:18Z</time>
      </trkpt>
      <trkpt lat="47.24735" lon="4.95753">
        <ele>400.9</ele>
        <time>2025-06-09T12:40:26Z</time>
      </trkpt>
      <trkpt lat="47.24741" lon="4.95744">
        <ele>399.7</ele>
        <time>2025-06-09T12:40:34Z</time>
      </trkpt>
      <trkpt lat="47.24747" lon="4.95733">
        <ele>398.71</ele>
        <time>2025-06-09T12:40:44Z</time>
      </trkpt>
      <trkpt lat="47.24755" lon="4.95723">
        <ele>399.06</ele>
        <time>2025-06-09T12:40:53Z</time>
      </trkpt>
      <trkpt lat="47.2476" lon="4.95712">
        <ele>397.84</ele>
        <time>2025-06-09T12:41:01Z</time>
      </trkpt>
      <trkpt lat="47.24767" lon="4.95702">
        <ele>397.3</ele>
        <time>2025-06-09T12:41:11Z</time>
      </trkpt>
      <trkpt lat="47.24772" lon="4.9569">
        <ele>398.95</ele>
        <time>2025-06-09T12:41:20Z</time>
      </trkpt>
      <trkpt lat="47.24779" lon="4.95678">
        <ele>400.43</ele>
        <time>2025-06-09T12:41:28Z</time>
      </trkpt>
      <trkpt lat="47.24782" lon="4.95666">
        <ele>398.71</ele>
        <time>2025-06-09T12:41:39Z</time>
      </trkpt>
      <trkpt lat="47.2479" lon="4.95656">
        <ele>401.16</ele>
        <time>2025-06-09T12:41:47Z</time>
      </trkpt>
      <trkpt lat="47.24796" lon="4.95644">
        <ele>399.68</ele>
        <time>2025-06-09T12:41:56Z</time>
      </trkpt>
      <trkpt lat="47.24802" lon="4.95633">
        <ele>401.01</ele>
        <time>2025-06-09T12:42:06Z</time>
      </trkpt>
      <trkpt lat="47.24806" lon="4.95622">
        <ele>405.53</ele>
        <time>2025-06-09T12:42:14Z</time>
      </trkpt>
      <trkpt lat="47.24813" lon="4.95612">
        <ele>403.14</ele>
        <time>2025-06-09T12:42:26Z</time>
      </trkpt>
      <trkpt lat="47.2482" lon="4.95603">
        <ele>405.39</ele>
        <time>2025-06-09T12:42:35Z</time>
      </trkpt>
      <trkpt lat="47.24827" lon="4.95594">
        <ele>404.19</ele>
        <time>2025-06-09T12:42:45Z</time>
      </trkpt>
      <trkpt lat="47.24837" lon="4.95593">
        <ele>403.97</ele>
        <time>2025-06-09T12:42:56Z</time>
      </trkpt>
      <trkpt lat="47.24846" lon="4.95588">
        <ele>404.81</ele>
        <time>2025-06-09T12:43:02Z</time>
      </trkpt>
      <trkpt lat="47.24853" lon="4.95579">
        <ele>406.3</ele>
        <time>2025-06-09T12:43:12Z</time>
      </trkpt>
      <trkpt lat="47.2486" lon="4.95569">
        <ele>405.88</ele>
        <time>2025-06-09T12:43:21Z</time>
      </trkpt>
      <trkpt lat="47.24867" lon="4.9556">
        <ele>404.63</ele>
        <time>2025-06-09T12:43:30Z</time>
      </trkpt>
      <trkpt lat="47.24872" lon="4.95548">
        <ele>405.48</ele>
        <time>2025-06-09T12:43:38Z</time>
      </trkpt>
      <trkpt lat="47.24878" lon="4.95537">
        <ele>406.9</ele>
        <time>2025-06-09T12:43:47Z</time>
      </trkpt>
      <trkpt lat="47.24885" lon="4.95527">
        <ele>407.93</ele>
        <time>2025-06-09T12:43:55Z</time>
      </trkpt>
      <trkpt lat="47.24887" lon="4.95514">
        <ele>409.59</ele>
        <time>2025-06-09T12:44:04Z</time>
      </trkpt>
      <trkpt lat="47.24896" lon="4.95503">
        <ele>412.73</ele>
        <time>2025-06-09T12:44:13Z</time>
      </trkpt>
      <trkpt lat="47.249" lon="4.95491">
        <ele>414.29</ele>
        <time>2025-06-09T12:44:22Z</time>
      </trkpt>
      <trkpt lat="47.24904" lon="4.95478">
        <ele>414.2</ele>
        <time>2025-06-09T12:44:30Z</time>
      </trkpt>
      <trkpt lat="47.2491" lon="4.95466">
        <ele>414.65</ele>
        <time>2025-06-09T12:44:41Z</time>
      </trkpt>
      <trkpt lat="47.24915" lon="4.95455">
        <ele>417.87</ele>
        <time>2025-06-09T12:44:50Z</time>
      </trkpt>
      <trkpt lat="47.24918" lon="4.95442">
        <ele>419.97</ele>
        <time>2025-06-09T12:45:00Z</time>
      </trkpt>
      <trkpt lat="47.24923" lon="4.9543">
        <ele>418.36</ele>
        <time>2025-06-09T12:45:32Z</time>
      </trkpt>
      <trkpt lat="47.24927" lon="4.95418">
        <ele>421.54</ele>
        <time>2025-06-09T12:45:42Z</time>
      </trkpt>
      <trkpt lat="47.2493" lon="4.95405">
        <ele>421.87</ele>
        <time>2025-06-09T12:45:52Z</time>
      </trkpt>
      <trkpt lat="47.24936" lon="4.95395">
        <ele>423.3</ele>
        <time>2025-06-09T12:46:01Z</time>
      </trkpt>
      <trkpt lat="47.24944" lon="4.95385">
        <ele>423.45</ele>
        <time>2025-06-09T12:46:11Z</time>
      </trkpt>
      <trkpt lat="47.2495" lon="4.95375">
        <ele>425.45</ele>
        <time>2025-06-09T12:46:20Z</time>
      </trkpt>
      <trkpt lat="47.24958" lon="4.95366">
        <ele>425.56</ele>
        <time>2025-06-09T12:46:31Z</time>
      </trkpt>
      <trkpt lat="47.24965" lon="4.95357">
        <ele>423.76</ele>
        <time>2025-06-09T12:46:41Z</time>
      </trkpt>
      <trkpt lat="47.24971" lon="4.95347">
        <ele>425.87</ele>
        <time>2025-06-09T12:46:52Z</time>
      </trkpt>
      <trkpt lat="47.24977" lon="4.95336">
        <ele>424.79</ele>
        <time>2025-06-09T12:47:04Z</time>
      </trkpt>
      <trkpt lat="47.2498" lon="4.95323">
        <ele>424.7</ele>
        <time>2025-06-09T12:47:15Z</time>
      </trkpt>
      <trkpt lat="47.24989" lon="4.95319">
        <ele>419.41</ele>
        <time>2025-06-09T12:47:32Z</time>
      </trkpt>
      <trkpt lat="47.24994" lon="4.95306">
        <ele>423.67</ele>
        <time>2025-06-09T12:47:42Z</time>
      </trkpt>
      <trkpt lat="47.24997" lon="4.95293">
        <ele>422.82</ele>
        <time>2025-06-09T12:47:52Z</time>
      </trkpt>
      <trkpt lat="47.25002" lon="4.9528">
        <ele>426.72</ele>
        <time>2025-06-09T12:48:01Z</time>
      </trkpt>
      <trkpt lat="47.25008" lon="4.9527">
        <ele>430.77</ele>
        <time>2025-06-09T12:48:10Z</time>
      </trkpt>
      <trkpt lat="47.25015" lon="4.95258">
        <ele>432.92</ele>
        <time>2025-06-09T12:48:23Z</time>
      </trkpt>
      <trkpt lat="47.25021" lon="4.95247">
        <ele>436.2</ele>
        <time>2025-06-09T12:48:33Z</time>
      </trkpt>
      <trkpt lat="47.25022" lon="4.95234">
        <ele>438.9</ele>
        <time>2025-06-09T12:48:43Z</time>
      </trkpt>
      <trkpt lat="47.25025" lon="4.95221">
        <ele>440.17</ele>
        <time>2025-06-09T12:48:55Z</time>
      </trkpt>
      <trkpt lat="47.25032" lon="4.95213">
        <ele>440.6</ele>
        <time>2025-06-09T12:49:04Z</time>
      </trkpt>
      <trkpt lat="47.25036" lon="4.952">
        <ele>439.02</ele>
        <time>2025-06-09T12:49:14Z</time>
      </trkpt>
      <trkpt lat="47.25041" lon="4.95188">
        <ele>439.79</ele>
        <time>2025-06-09T12:49:24Z</time>
      </trkpt>
      <trkpt lat="47.25046" lon="4.95176">
        <ele>441.28</ele>
        <time>2025-06-09T12:49:36Z</time>
      </trkpt>
      <trkpt lat="47.2505" lon="4.95163">
        <ele>442.53</ele>
        <time>2025-06-09T12:49:47Z</time>
      </trkpt>
      <trkpt lat="47.25054" lon="4.9515">
        <ele>443.14</ele>
        <time>2025-06-09T12:49:57Z</time>
      </trkpt>
      <trkpt lat="47.25062" lon="4.95142">
        <ele>439.93</ele>
        <time>2025-06-09T12:50:07Z</time>
      </trkpt>
      <trkpt lat="47.25069" lon="4.95133">
        <ele>443.32</ele>
        <time>2025-06-09T12:50:17Z</time>
      </trkpt>
      <trkpt lat="47.25073" lon="4.95121">
        <ele>442.15</ele>
        <time>2025-06-09T12:50:29Z</time>
      </trkpt>
      <trkpt lat="47.2508" lon="4.95112">
        <ele>440.63</ele>
        <time>2025-06-09T12:50:39Z</time>
      </trkpt>
      <trkpt lat="47.25088" lon="4.95104">
        <ele>445.25</ele>
        <time>2025-06-09T12:50:49Z</time>
      </trkpt>
      <trkpt lat="47.25095" lon="4.95094">
        <ele>445.49</ele>
        <time>2025-06-09T12:51:00Z</time>
      </trkpt>
      <trkpt lat="47.25102" lon="4.95085">
        <ele>452.65</ele>
        <time>2025-06-09T12:51:13Z</time>
      </trkpt>
      <trkpt lat="47.25104" lon="4.95072">
        <ele>451.67</ele>
        <time>2025-06-09T12:51:25Z</time>
      </trkpt>
      <trkpt lat="47.25106" lon="4.95058">
        <ele>456.48</ele>
        <time>2025-06-09T12:51:36Z</time>
      </trkpt>
      <trkpt lat="47.2511" lon="4.95045">
        <ele>461.21</ele>
        <time>2025-06-09T12:51:47Z</time>
      </trkpt>
      <trkpt lat="47.2511" lon="4.95031">
        <ele>468.16</ele>
        <time>2025-06-09T12:52:00Z</time>
      </trkpt>
      <trkpt lat="47.25111" lon="4.95017">
        <ele>472.63</ele>
        <time>2025-06-09T12:52:15Z</time>
      </trkpt>
      <trkpt lat="47.25105" lon="4.95006">
        <ele>480.07</ele>
        <time>2025-06-09T12:52:29Z</time>
      </trkpt>
      <trkpt lat="47.25109" lon="4.94993">
        <ele>476.01</ele>
        <time>2025-06-09T12:52:59Z</time>
      </trkpt>
      <trkpt lat="47.25112" lon="4.94981">
        <ele>476.27</ele>
        <time>2025-06-09T12:53:19Z</time>
      </trkpt>
      <trkpt lat="47.25117" lon="4.94969">
        <ele>481.19</ele>
        <time>2025-06-09T12:53:53Z</time>
      </trkpt>
      <trkpt lat="47.25115" lon="4.94955">
        <ele>477.8</ele>
        <time>2025-06-09T12:54:17Z</time>
      </trkpt>
      <trkpt lat="47.25119" lon="4.94942">
        <ele>485.15</ele>
        <time>2025-06-09T12:54:41Z</time>
      </trkpt>
      <trkpt lat="47.25121" lon="4.94929">
        <ele>478.27</ele>
        <time>2025-06-09T12:55:57Z</time>
      </trkpt>
      <trkpt lat="47.25125" lon="4.94917">
        <ele>475.99</ele>
        <time>2025-06-09T12:57:18Z</time>
      </trkpt>
      <trkpt lat="47.25134" lon="4.94923">
        <ele>475.64</ele>
        <time>2025-06-09T12:57:50Z</time>
      </trkpt>
      <trkpt lat="47.25142" lon="4.94916">
        <ele>478.01</ele>
        <time>2025-06-09T12:58:39Z</time>
      </trkpt>
      <trkpt lat="47.25142" lon="4.94925">
        <ele>479.7</ele>
        <time>2025-06-09T13:00:45Z</time>
      </trkpt>
      <trkpt lat="47.25142" lon="4.94939">
        <ele>482.53</ele>
        <time>2025-06-09T13:01:02Z</time>
      </trkpt>
      <trkpt lat="47.25145" lon="4.94952">
        <ele>481.19</ele>
        <time>2025-06-09T13:01:21Z</time>
      </trkpt>
      <trkpt lat="47.25151" lon="4.94963">
        <ele>481.59</ele>
        <time>2025-06-09T13:02:04Z</time>
      </trkpt>
      <trkpt lat="47.25155" lon="4.94974">
        <ele>481.79</ele>
        <time>2025-06-09T13:02:34Z</time>
      </trkpt>
      <trkpt lat="47.25153" lon="4.94988">
        <ele>479.84</ele>
        <time>2025-06-09T13:02:51Z</time>
      </trkpt>
      <trkpt lat="47.25154" lon="4.95002">
        <ele>481.44</ele>
        <time>2025-06-09T13:03:04Z</time>
      </trkpt>
      <trkpt lat="47.25155" lon="4.95016">
        <ele>481.26</ele>
        <time>2025-06-09T13:03:27Z</time>
      </trkpt>
      <trkpt lat="47.25152" lon="4.95029">
        <ele>483.36</ele>
        <time>2025-06-09T13:04:01Z</time>
      </trkpt>
      <trkpt lat="47.25149" lon="4.95042">
        <ele>487.18</ele>
        <time>2025-06-09T13:04:32Z</time>
      </trkpt>
      <trkpt lat="47.2515" lon="4.95056">
        <ele>489.65</ele>
        <time>2025-06-09T13:04:49Z</time>
      </trkpt>
      <trkpt lat="47.25153" lon="4.95069">
        <ele>489.27</ele>
        <time>2025-06-09T13:05:16Z</time>
      </trkpt>
      <trkpt lat="47.25152" lon="4.95084">
        <ele>488.89</ele>
        <time>2025-06-09T13:05:30Z</time>
      </trkpt>
      <trkpt lat="47.25153" lon="4.95097">
        <ele>488.94</ele>
        <time>2025-06-09T13:05:43Z</time>
      </trkpt>
      <trkpt lat="47.2515" lon="4.9511">
        <ele>491.95</ele>
        <time>2025-06-09T13:05:58Z</time>
      </trkpt>
      <trkpt lat="47.25147" lon="4.95123">
        <ele>494.14</ele>
        <time>2025-06-09T13:06:17Z</time>
      </trkpt>
      <trkpt lat="47.25143" lon="4.95135">
        <ele>495.14</ele>
        <time>2025-06-09T13:06:43Z</time>
      </trkpt>
      <trkpt lat="47.25138" lon="4.95146">
        <ele>492.05</ele>
        <time>2025-06-09T13:07:00Z</time>
      </trkpt>
      <trkpt lat="47.25133" lon="4.95158">
        <ele>489.16</ele>
        <time>2025-06-09T13:07:16Z</time>
      </trkpt>
      <trkpt lat="47.25127" lon="4.9517">
        <ele>490.33</ele>
        <time>2025-06-09T13:07:30Z</time>
      </trkpt>
      <trkpt lat="47.25122" lon="4.95182">
        <ele>491.37</ele>
        <time>2025-06-09T13:07:40Z</time>
      </trkpt>
      <trkpt lat="47.25118" lon="4.95195">
        <ele>488.49</ele>
        <time>2025-06-09T13:07:51Z</time>
      </trkpt>
      <trkpt lat="47.25117" lon="4.95209">
        <ele>489.05</ele>
        <time>2025-06-09T13:08:28Z</time>
      </trkpt>
      <trkpt lat="47.25119" lon="4.95223">
        <ele>488.52</ele>
        <time>2025-06-09T13:08:40Z</time>
      </trkpt>
      <trkpt lat="47.2512" lon="4.95236">
        <ele>490.86</ele>
        <time>2025-06-09T13:08:52Z</time>
      </trkpt>
      <trkpt lat="47.25121" lon="4.95249">
        <ele>490.85</ele>
        <time>2025-06-09T13:09:03Z</time>
      </trkpt>
      <trkpt lat="47.25122" lon="4.95263">
        <ele>493.98</ele>
        <time>2025-06-09T13:09:18Z</time>
      </trkpt>
      <trkpt lat="47.25119" lon="4.95276">
        <ele>491.77</ele>
        <time>2025-06-09T13:09:32Z</time>
      </trkpt>
      <trkpt lat="47.25117" lon="4.95289">
        <ele>491.24</ele>
        <time>2025-06-09T13:09:43Z</time>
      </trkpt>
      <trkpt lat="47.25113" lon="4.95301">
        <ele>490.72</ele>
        <time>2025-06-09T13:09:51Z</time>
      </trkpt>
      <trkpt lat="47.2511" lon="4.95315">
        <ele>489.59</ele>
        <time>2025-06-09T13:09:59Z</time>
      </trkpt>
      <trkpt lat="47.25106" lon="4.95328">
        <ele>490.12</ele>
        <time>2025-06-09T13:10:08Z</time>
      </trkpt>
      <trkpt lat="47.25102" lon="4.9534">
        <ele>489.98</ele>
        <time>2025-06-09T13:10:17Z</time>
      </trkpt>
      <trkpt lat="47.25103" lon="4.95354">
        <ele>491.64</ele>
        <time>2025-06-09T13:10:31Z</time>
      </trkpt>
      <trkpt lat="47.251" lon="4.95367">
        <ele>492.11</ele>
        <time>2025-06-09T13:10:47Z</time>
      </trkpt>
      <trkpt lat="47.25109" lon="4.95373">
        <ele>488.8</ele>
        <time>2025-06-09T13:11:00Z</time>
      </trkpt>
      <trkpt lat="47.25118" lon="4.95379">
        <ele>491.65</ele>
        <time>2025-06-09T13:11:11Z</time>
      </trkpt>
      <trkpt lat="47.25127" lon="4.95385">
        <ele>493.04</ele>
        <time>2025-06-09T13:11:22Z</time>
      </trkpt>
      <trkpt lat="47.25135" lon="4.95392">
        <ele>491.04</ele>
        <time>2025-06-09T13:11:49Z</time>
      </trkpt>
      <trkpt lat="47.25144" lon="4.95397">
        <ele>488.94</ele>
        <time>2025-06-09T13:12:03Z</time>
      </trkpt>
      <trkpt lat="47.25153" lon="4.954">
        <ele>487.43</ele>
        <time>2025-06-09T13:12:16Z</time>
      </trkpt>
      <trkpt lat="47.25162" lon="4.95404">
        <ele>489.5</ele>
        <time>2025-06-09T13:12:26Z</time>
      </trkpt>
      <trkpt lat="47.2517" lon="4.9541">
        <ele>488.15</ele>
        <time>2025-06-09T13:12:36Z</time>
      </trkpt>
      <trkpt lat="47.25179" lon="4.95416">
        <ele>497.4</ele>
        <time>2025-06-09T13:13:34Z</time>
      </trkpt>
      <trkpt lat="47.25188" lon="4.95417">
        <ele>493.62</ele>
        <time>2025-06-09T13:13:48Z</time>
      </trkpt>
      <trkpt lat="47.25196" lon="4.95424">
        <ele>492.9</ele>
        <time>2025-06-09T13:13:57Z</time>
      </trkpt>
      <trkpt lat="47.25197" lon="4.95438">
        <ele>491.77</ele>
        <time>2025-06-09T13:14:12Z</time>
      </trkpt>
      <trkpt lat="47.25193" lon="4.95451">
        <ele>493.49</ele>
        <time>2025-06-09T13:14:21Z</time>
      </trkpt>
      <trkpt lat="47.25189" lon="4.95464">
        <ele>495.07</ele>
        <time>2025-06-09T13:14:31Z</time>
      </trkpt>
      <trkpt lat="47.25184" lon="4.95477">
        <ele>493.46</ele>
        <time>2025-06-09T13:14:40Z</time>
      </trkpt>
      <trkpt lat="47.25178" lon="4.95489">
        <ele>493.75</ele>
        <time>2025-06-09T13:14:49Z</time>
      </trkpt>
      <trkpt lat="47.25174" lon="4.955">
        <ele>494.75</ele>
        <time>2025-06-09T13:14:59Z</time>
      </trkpt>
      <trkpt lat="47.25168" lon="4.95511">
        <ele>495.03</ele>
        <time>2025-06-09T13:15:08Z</time>
      </trkpt>
      <trkpt lat="47.25162" lon="4.95523">
        <ele>493.77</ele>
        <time>2025-06-09T13:15:17Z</time>
      </trkpt>
      <trkpt lat="47.25157" lon="4.95533">
        <ele>493.5</ele>
        <time>2025-06-09T13:15:26Z</time>
      </trkpt>
      <trkpt lat="47.25149" lon="4.95544">
        <ele>492.94</ele>
        <time>2025-06-09T13:15:37Z</time>
      </trkpt>
      <trkpt lat="47.25142" lon="4.95553">
        <ele>491.55</ele>
        <time>2025-06-09T13:15:48Z</time>
      </trkpt>
      <trkpt lat="47.25134" lon="4.95562">
        <ele>491.32</ele>
        <time>2025-06-09T13:15:57Z</time>
      </trkpt>
      <trkpt lat="47.25126" lon="4.9557">
        <ele>491.57</ele>
        <time>2025-06-09T13:16:07Z</time>
      </trkpt>
      <trkpt lat="47.2512" lon="4.9558">
        <ele>489.78</ele>
        <time>2025-06-09T13:16:17Z</time>
      </trkpt>
      <trkpt lat="47.25114" lon="4.9559">
        <ele>488.81</ele>
        <time>2025-06-09T13:16:26Z</time>
      </trkpt>
      <trkpt lat="47.25108" lon="4.95603">
        <ele>489.82</ele>
        <time>2025-06-09T13:16:36Z</time>
      </trkpt>
      <trkpt lat="47.25102" lon="4.95614">
        <ele>488.83</ele>
        <time>2025-06-09T13:16:44Z</time>
      </trkpt>
      <trkpt lat="47.25095" lon="4.95622">
        <ele>489.33</ele>
        <time>2025-06-09T13:16:52Z</time>
      </trkpt>
      <trkpt lat="47.25087" lon="4.95628">
        <ele>486.93</ele>
        <time>2025-06-09T13:17:01Z</time>
      </trkpt>
      <trkpt lat="47.2508" lon="4.95638">
        <ele>485.24</ele>
        <time>2025-06-09T13:17:10Z</time>
      </trkpt>
      <trkpt lat="47.25074" lon="4.95648">
        <ele>483.99</ele>
        <time>2025-06-09T13:17:19Z</time>
      </trkpt>
      <trkpt lat="47.25068" lon="4.9566">
        <ele>485.16</ele>
        <time>2025-06-09T13:17:29Z</time>
      </trkpt>
      <trkpt lat="47.25063" lon="4.95671">
        <ele>484.33</ele>
        <time>2025-06-09T13:17:37Z</time>
      </trkpt>
      <trkpt lat="47.25057" lon="4.95682">
        <ele>482.98</ele>
        <time>2025-06-09T13:17:48Z</time>
      </trkpt>
      <trkpt lat="47.25051" lon="4.95691">
        <ele>480.6</ele>
        <time>2025-06-09T13:17:58Z</time>
      </trkpt>
      <trkpt lat="47.25044" lon="4.957">
        <ele>481.85</ele>
        <time>2025-06-09T13:18:07Z</time>
      </trkpt>
      <trkpt lat="47.25037" lon="4.95711">
        <ele>479.72</ele>
        <time>2025-06-09T13:18:17Z</time>
      </trkpt>
      <trkpt lat="47.2503" lon="4.9572">
        <ele>480.42</ele>
        <time>2025-06-09T13:18:27Z</time>
      </trkpt>
      <trkpt lat="47.25024" lon="4.9573">
        <ele>478.04</ele>
        <time>2025-06-09T13:18:36Z</time>
      </trkpt>
      <trkpt lat="47.25018" lon="4.95741">
        <ele>478.43</ele>
        <time>2025-06-09T13:18:44Z</time>
      </trkpt>
      <trkpt lat="47.25017" lon="4.95746">
        <ele>480.13</ele>
        <time>2025-06-09T13:20:45Z</time>
      </trkpt>
      <trkpt lat="47.25008" lon="4.95751">
        <ele>478.68</ele>
        <time>2025-06-09T13:20:59Z</time>
      </trkpt>
      <trkpt lat="47.25002" lon="4.95763">
        <ele>480.22</ele>
        <time>2025-06-09T13:21:08Z</time>
      </trkpt>
      <trkpt lat="47.24996" lon="4.95773">
        <ele>479.61</ele>
        <time>2025-06-09T13:21:17Z</time>
      </trkpt>
      <trkpt lat="47.24989" lon="4.95783">
        <ele>475.81</ele>
        <time>2025-06-09T13:21:27Z</time>
      </trkpt>
      <trkpt lat="47.24983" lon="4.95794">
        <ele>474.01</ele>
        <time>2025-06-09T13:21:35Z</time>
      </trkpt>
      <trkpt lat="47.24976" lon="4.95804">
        <ele>471.62</ele>
        <time>2025-06-09T13:21:44Z</time>
      </trkpt>
      <trkpt lat="47.24969" lon="4.95814">
        <ele>472.3</ele>
        <time>2025-06-09T13:21:54Z</time>
      </trkpt>
      <trkpt lat="47.24964" lon="4.95824">
        <ele>468.8</ele>
        <time>2025-06-09T13:22:03Z</time>
      </trkpt>
      <trkpt lat="47.24957" lon="4.95835">
        <ele>468.02</ele>
        <time>2025-06-09T13:22:13Z</time>
      </trkpt>
      <trkpt lat="47.24949" lon="4.95844">
        <ele>468.19</ele>
        <time>2025-06-09T13:22:21Z</time>
      </trkpt>
      <trkpt lat="47.24943" lon="4.95854">
        <ele>466.48</ele>
        <time>2025-06-09T13:22:30Z</time>
      </trkpt>
      <trkpt lat="47.24937" lon="4.95865">
        <ele>469.37</ele>
        <time>2025-06-09T13:22:37Z</time>
      </trkpt>
      <trkpt lat="47.2493" lon="4.95875">
        <ele>469.02</ele>
        <time>2025-06-09T13:22:45Z</time>
      </trkpt>
      <trkpt lat="47.24924" lon="4.95884">
        <ele>467.47</ele>
        <time>2025-06-09T13:22:53Z</time>
      </trkpt>
      <trkpt lat="47.24915" lon="4.95891">
        <ele>468.76</ele>
        <time>2025-06-09T13:23:00Z</time>
      </trkpt>
      <trkpt lat="47.24912" lon="4.95904">
        <ele>464.84</ele>
        <time>2025-06-09T13:23:10Z</time>
      </trkpt>
      <trkpt lat="47.24907" lon="4.95917">
        <ele>462.34</ele>
        <time>2025-06-09T13:23:18Z</time>
      </trkpt>
      <trkpt lat="47.24901" lon="4.95928">
        <ele>463.23</ele>
        <time>2025-06-09T13:23:27Z</time>
      </trkpt>
      <trkpt lat="47.24899" lon="4.95942">
        <ele>458.13</ele>
        <time>2025-06-09T13:23:36Z</time>
      </trkpt>
      <trkpt lat="47.24895" lon="4.95954">
        <ele>456.58</ele>
        <time>2025-06-09T13:23:46Z</time>
      </trkpt>
      <trkpt lat="47.24894" lon="4.95968">
        <ele>459.93</ele>
        <time>2025-06-09T13:24:03Z</time>
      </trkpt>
      <trkpt lat="47.2489" lon="4.9598">
        <ele>459.1</ele>
        <time>2025-06-09T13:24:16Z</time>
      </trkpt>
      <trkpt lat="47.24884" lon="4.9599">
        <ele>459.75</ele>
        <time>2025-06-09T13:24:25Z</time>
      </trkpt>
      <trkpt lat="47.24881" lon="4.96003">
        <ele>458.8</ele>
        <time>2025-06-09T13:24:34Z</time>
      </trkpt>
      <trkpt lat="47.24881" lon="4.96018">
        <ele>457.4</ele>
        <time>2025-06-09T13:24:44Z</time>
      </trkpt>
      <trkpt lat="47.2488" lon="4.96032">
        <ele>457.14</ele>
        <time>2025-06-09T13:24:52Z</time>
      </trkpt>
      <trkpt lat="47.24879" lon="4.96048">
        <ele>456.09</ele>
        <time>2025-06-09T13:25:00Z</time>
      </trkpt>
      <trkpt lat="47.24877" lon="4.96061">
        <ele>454.66</ele>
        <time>2025-06-09T13:25:09Z</time>
      </trkpt>
      <trkpt lat="47.24876" lon="4.96075">
        <ele>453.68</ele>
        <time>2025-06-09T13:25:17Z</time>
      </trkpt>
      <trkpt lat="47.24876" lon="4.96089">
        <ele>451.79</ele>
        <time>2025-06-09T13:25:27Z</time>
      </trkpt>
      <trkpt lat="47.24878" lon="4.96104">
        <ele>453.7</ele>
        <time>2025-06-09T13:25:35Z</time>
      </trkpt>
      <trkpt lat="47.24878" lon="4.96118">
        <ele>454.77</ele>
        <time>2025-06-09T13:25:42Z</time>
      </trkpt>
      <trkpt lat="47.2488" lon="4.96132">
        <ele>453.08</ele>
        <time>2025-06-09T13:25:51Z</time>
      </trkpt>
      <trkpt lat="47.24879" lon="4.96146">
        <ele>453.21</ele>
        <time>2025-06-09T13:25:58Z</time>
      </trkpt>
      <trkpt lat="47.24883" lon="4.96159">
        <ele>451.11</ele>
        <time>2025-06-09T13:26:08Z</time>
      </trkpt>
      <trkpt lat="47.24884" lon="4.96173">
        <ele>451.96</ele>
        <time>2025-06-09T13:26:17Z</time>
      </trkpt>
      <trkpt lat="47.24885" lon="4.96186">
        <ele>451.73</ele>
        <time>2025-06-09T13:26:28Z</time>
      </trkpt>
      <trkpt lat="47.24887" lon="4.962">
        <ele>451.55</ele>
        <time>2025-06-09T13:26:37Z</time>
      </trkpt>
      <trkpt lat="47.24889" lon="4.96213">
        <ele>450.24</ele>
        <time>2025-06-09T13:26:46Z</time>
      </trkpt>
      <trkpt lat="47.24891" lon="4.96226">
        <ele>445.28</ele>
        <time>2025-06-09T13:26:55Z</time>
      </trkpt>
      <trkpt lat="47.24897" lon="4.96237">
        <ele>442.82</ele>
        <time>2025-06-09T13:27:04Z</time>
      </trkpt>
      <trkpt lat="47.24901" lon="4.9625">
        <ele>443.16</ele>
        <time>2025-06-09T13:27:13Z</time>
      </trkpt>
      <trkpt lat="47.24907" lon="4.9626">
        <ele>442.12</ele>
        <time>2025-06-09T13:27:22Z</time>
      </trkpt>
      <trkpt lat="47.2491" lon="4.96273">
        <ele>442.85</ele>
        <time>2025-06-09T13:27:31Z</time>
      </trkpt>
      <trkpt lat="47.24914" lon="4.96285">
        <ele>439.98</ele>
        <time>2025-06-09T13:27:40Z</time>
      </trkpt>
      <trkpt lat="47.24917" lon="4.96298">
        <ele>437.99</ele>
        <time>2025-06-09T13:27:48Z</time>
      </trkpt>
      <trkpt lat="47.24922" lon="4.9631">
        <ele>436.89</ele>
        <time>2025-06-09T13:27:56Z</time>
      </trkpt>
      <trkpt lat="47.24927" lon="4.96322">
        <ele>437.61</ele>
        <time>2025-06-09T13:28:05Z</time>
      </trkpt>
      <trkpt lat="47.24931" lon="4.96334">
        <ele>437.43</ele>
        <time>2025-06-09T13:28:13Z</time>
      </trkpt>
      <trkpt lat="47.24937" lon="4.96344">
        <ele>440.49</ele>
        <time>2025-06-09T13:28:21Z</time>
      </trkpt>
      <trkpt lat="47.24945" lon="4.96352">
        <ele>438.48</ele>
        <time>2025-06-09T13:28:30Z</time>
      </trkpt>
      <trkpt lat="47.24952" lon="4.96363">
        <ele>440.13</ele>
        <time>2025-06-09T13:28:38Z</time>
      </trkpt>
      <trkpt lat="47.24952" lon="4.96377">
        <ele>436.61</ele>
        <time>2025-06-09T13:28:47Z</time>
      </trkpt>
      <trkpt lat="47.24943" lon="4.96377">
        <ele>430.39</ele>
        <time>2025-06-09T13:28:54Z</time>
      </trkpt>
      <trkpt lat="47.24934" lon="4.96373">
        <ele>429.42</ele>
        <time>2025-06-09T13:29:01Z</time>
      </trkpt>
      <trkpt lat="47.24925" lon="4.96371">
        <ele>430.2</ele>
        <time>2025-06-09T13:29:09Z</time>
      </trkpt>
      <trkpt lat="47.24916" lon="4.96371">
        <ele>428.67</ele>
        <time>2025-06-09T13:29:16Z</time>
      </trkpt>
      <trkpt lat="47.24906" lon="4.96369">
        <ele>433.1</ele>
        <time>2025-06-09T13:29:24Z</time>
      </trkpt>
      <trkpt lat="47.24897" lon="4.96368">
        <ele>434.07</ele>
        <time>2025-06-09T13:29:32Z</time>
      </trkpt>
      <trkpt lat="47.24888" lon="4.96363">
        <ele>435.66</ele>
        <time>2025-06-09T13:29:40Z</time>
      </trkpt>
      <trkpt lat="47.24878" lon="4.9636">
        <ele>432.84</ele>
        <time>2025-06-09T13:29:49Z</time>
      </trkpt>
      <trkpt lat="47.24872" lon="4.96362">
        <ele>425.06</ele>
        <time>2025-06-09T13:31:50Z</time>
      </trkpt>
      <trkpt lat="47.24862" lon="4.96361">
        <ele>421.76</ele>
        <time>2025-06-09T13:32:00Z</time>
      </trkpt>
      <trkpt lat="47.24853" lon="4.96364">
        <ele>419.02</ele>
        <time>2025-06-09T13:32:08Z</time>
      </trkpt>
      <trkpt lat="47.24845" lon="4.96359">
        <ele>416.79</ele>
        <time>2025-06-09T13:32:51Z</time>
      </trkpt>
      <trkpt lat="47.24835" lon="4.96357">
        <ele>416.13</ele>
        <time>2025-06-09T13:32:59Z</time>
      </trkpt>
      <trkpt lat="47.24825" lon="4.96356">
        <ele>417.42</ele>
        <time>2025-06-09T13:33:06Z</time>
      </trkpt>
      <trkpt lat="47.24816" lon="4.96353">
        <ele>418.34</ele>
        <time>2025-06-09T13:33:15Z</time>
      </trkpt>
      <trkpt lat="47.24807" lon="4.96349">
        <ele>418.13</ele>
        <time>2025-06-09T13:33:23Z</time>
      </trkpt>
      <trkpt lat="47.24799" lon="4.96344">
        <ele>413.49</ele>
        <time>2025-06-09T13:33:34Z</time>
      </trkpt>
      <trkpt lat="47.24789" lon="4.96338">
        <ele>412.17</ele>
        <time>2025-06-09T13:33:45Z</time>
      </trkpt>
      <trkpt lat="47.2478" lon="4.96332">
        <ele>413.85</ele>
        <time>2025-06-09T13:33:53Z</time>
      </trkpt>
      <trkpt lat="47.24772" lon="4.96324">
        <ele>417.06</ele>
        <time>2025-06-09T13:34:04Z</time>
      </trkpt>
      <trkpt lat="47.24765" lon="4.96315">
        <ele>413.66</ele>
        <time>2025-06-09T13:34:11Z</time>
      </trkpt>
      <trkpt lat="47.24759" lon="4.96304">
        <ele>412.49</ele>
        <time>2025-06-09T13:34:24Z</time>
      </trkpt>
      <trkpt lat="47.2475" lon="4.96308">
        <ele>411.93</ele>
        <time>2025-06-09T13:34:50Z</time>
      </trkpt>
      <trkpt lat="47.24748" lon="4.96321">
        <ele>406.93</ele>
        <time>2025-06-09T13:35:00Z</time>
      </trkpt>
      <trkpt lat="47.24748" lon="4.96335">
        <ele>402.26</ele>
        <time>2025-06-09T13:35:09Z</time>
      </trkpt>
      <trkpt lat="47.24748" lon="4.96349">
        <ele>401.42</ele>
        <time>2025-06-09T13:35:17Z</time>
      </trkpt>
      <trkpt lat="47.24743" lon="4.96361">
        <ele>402.08</ele>
        <time>2025-06-09T13:35:27Z</time>
      </trkpt>
      <trkpt lat="47.24745" lon="4.96374">
        <ele>402.92</ele>
        <time>2025-06-09T13:35:35Z</time>
      </trkpt>
      <trkpt lat="47.24744" lon="4.96388">
        <ele>403.02</ele>
        <time>2025-06-09T13:35:44Z</time>
      </trkpt>
      <trkpt lat="47.2474" lon="4.964">
        <ele>402.71</ele>
        <time>2025-06-09T13:35:55Z</time>
      </trkpt>
      <trkpt lat="47.24738" lon="4.96415">
        <ele>398.62</ele>
        <time>2025-06-09T13:36:05Z</time>
      </trkpt>
      <trkpt lat="47.24732" lon="4.96425">
        <ele>396.95</ele>
        <time>2025-06-09T13:36:14Z</time>
      </trkpt>
      <trkpt lat="47.2473" lon="4.96439">
        <ele>396.16</ele>
        <time>2025-06-09T13:36:23Z</time>
      </trkpt>
      <trkpt lat="47.24733" lon="4.96451">
        <ele>394.55</ele>
        <time>2025-06-09T13:36:30Z</time>
      </trkpt>
      <trkpt lat="47.24731" lon="4.96465">
        <ele>393.13</ele>
        <time>2025-06-09T13:36:39Z</time>
      </trkpt>
      <trkpt lat="47.24732" lon="4.96479">
        <ele>393.33</ele>
        <time>2025-06-09T13:36:48Z</time>
      </trkpt>
      <trkpt lat="47.24732" lon="4.96493">
        <ele>389.89</ele>
        <time>2025-06-09T13:36:56Z</time>
      </trkpt>
      <trkpt lat="47.24732" lon="4.96507">
        <ele>389.54</ele>
        <time>2025-06-09T13:37:05Z</time>
      </trkpt>
      <trkpt lat="47.24733" lon="4.96521">
        <ele>386.07</ele>
        <time>2025-06-09T13:37:13Z</time>
      </trkpt>
      <trkpt lat="47.24733" lon="4.96534">
        <ele>385.49</ele>
        <time>2025-06-09T13:37:20Z</time>
      </trkpt>
      <trkpt lat="47.24733" lon="4.96549">
        <ele>383.52</ele>
        <time>2025-06-09T13:37:29Z</time>
      </trkpt>
      <trkpt lat="47.24734" lon="4.96563">
        <ele>382.78</ele>
        <time>2025-06-09T13:37:38Z</time>
      </trkpt>
      <trkpt lat="47.24734" lon="4.96577">
        <ele>380.73</ele>
        <time>2025-06-09T13:37:46Z</time>
      </trkpt>
      <trkpt lat="47.24735" lon="4.9659">
        <ele>380</ele>
        <time>2025-06-09T13:37:54Z</time>
      </trkpt>
      <trkpt lat="47.24737" lon="4.96604">
        <ele>381.01</ele>
        <time>2025-06-09T13:38:02Z</time>
      </trkpt>
      <trkpt lat="47.24737" lon="4.96619">
        <ele>378.6</ele>
        <time>2025-06-09T13:38:11Z</time>
      </trkpt>
      <trkpt lat="47.24739" lon="4.96633">
        <ele>377.47</ele>
        <time>2025-06-09T13:38:19Z</time>
      </trkpt>
      <trkpt lat="47.24739" lon="4.96648">
        <ele>376.69</ele>
        <time>2025-06-09T13:38:29Z</time>
      </trkpt>
      <trkpt lat="47.24739" lon="4.96663">
        <ele>374.75</ele>
        <time>2025-06-09T13:38:38Z</time>
      </trkpt>
      <trkpt lat="47.2474" lon="4.96678">
        <ele>371.9</ele>
        <time>2025-06-09T13:38:48Z</time>
      </trkpt>
      <trkpt lat="47.24739" lon="4.96692">
        <ele>368.89</ele>
        <time>2025-06-09T13:38:58Z</time>
      </trkpt>
      <trkpt lat="47.24742" lon="4.96706">
        <ele>370.55</ele>
        <time>2025-06-09T13:39:05Z</time>
      </trkpt>
      <trkpt lat="47.24742" lon="4.9672">
        <ele>371.04</ele>
        <time>2025-06-09T13:39:13Z</time>
      </trkpt>
      <trkpt lat="47.24743" lon="4.96735">
        <ele>369.08</ele>
        <time>2025-06-09T13:39:22Z</time>
      </trkpt>
      <trkpt lat="47.24745" lon="4.96749">
        <ele>369.35</ele>
        <time>2025-06-09T13:39:28Z</time>
      </trkpt>
      <trkpt lat="47.24745" lon="4.96763">
        <ele>367.55</ele>
        <time>2025-06-09T13:39:37Z</time>
      </trkpt>
      <trkpt lat="47.2474" lon="4.96776">
        <ele>366.49</ele>
        <time>2025-06-09T13:39:49Z</time>
      </trkpt>
      <trkpt lat="47.24733" lon="4.96785">
        <ele>361.95</ele>
        <time>2025-06-09T13:39:58Z</time>
      </trkpt>
      <trkpt lat="47.24725" lon="4.96792">
        <ele>361.99</ele>
        <time>2025-06-09T13:40:07Z</time>
      </trkpt>
      <trkpt lat="47.24717" lon="4.96799">
        <ele>361.17</ele>
        <time>2025-06-09T13:40:15Z</time>
      </trkpt>
      <trkpt lat="47.24707" lon="4.96805">
        <ele>360.08</ele>
        <time>2025-06-09T13:40:24Z</time>
      </trkpt>
      <trkpt lat="47.24699" lon="4.96812">
        <ele>357.55</ele>
        <time>2025-06-09T13:40:33Z</time>
      </trkpt>
      <trkpt lat="47.24692" lon="4.96822">
        <ele>359.2</ele>
        <time>2025-06-09T13:40:42Z</time>
      </trkpt>
      <trkpt lat="47.24686" lon="4.96834">
        <ele>357.62</ele>
        <time>2025-06-09T13:40:51Z</time>
      </trkpt>
      <trkpt lat="47.2468" lon="4.96844">
        <ele>357.15</ele>
        <time>2025-06-09T13:40:59Z</time>
      </trkpt>
      <trkpt lat="47.24672" lon="4.96851">
        <ele>355.83</ele>
        <time>2025-06-09T13:41:08Z</time>
      </trkpt>
      <trkpt lat="47.24664" lon="4.9686">
        <ele>355.77</ele>
        <time>2025-06-09T13:41:16Z</time>
      </trkpt>
      <trkpt lat="47.24655" lon="4.96867">
        <ele>357.85</ele>
        <time>2025-06-09T13:41:24Z</time>
      </trkpt>
      <trkpt lat="47.24646" lon="4.96872">
        <ele>357.62</ele>
        <time>2025-06-09T13:41:32Z</time>
      </trkpt>
      <trkpt lat="47.24637" lon="4.96878">
        <ele>358.07</ele>
        <time>2025-06-09T13:41:44Z</time>
      </trkpt>
      <trkpt lat="47.24627" lon="4.96881">
        <ele>357.09</ele>
        <time>2025-06-09T13:41:53Z</time>
      </trkpt>
      <trkpt lat="47.2462" lon="4.96872">
        <ele>361.23</ele>
        <time>2025-06-09T13:42:05Z</time>
      </trkpt>
      <trkpt lat="47.24621" lon="4.96858">
        <ele>364.54</ele>
        <time>2025-06-09T13:42:18Z</time>
      </trkpt>
      <trkpt lat="47.24625" lon="4.96846">
        <ele>361.74</ele>
        <time>2025-06-09T13:42:30Z</time>
      </trkpt>
      <trkpt lat="47.24626" lon="4.96833">
        <ele>362.84</ele>
        <time>2025-06-09T13:42:38Z</time>
      </trkpt>
      <trkpt lat="47.24625" lon="4.96819">
        <ele>364.43</ele>
        <time>2025-06-09T13:42:46Z</time>
      </trkpt>
      <trkpt lat="47.24622" lon="4.96805">
        <ele>363.25</ele>
        <time>2025-06-09T13:42:53Z</time>
      </trkpt>
      <trkpt lat="47.2462" lon="4.96792">
        <ele>363.5</ele>
        <time>2025-06-09T13:43:02Z</time>
      </trkpt>
      <trkpt lat="47.24622" lon="4.96779">
        <ele>363.52</ele>
        <time>2025-06-09T13:43:10Z</time>
      </trkpt>
      <trkpt lat="47.24624" lon="4.96765">
        <ele>364.71</ele>
        <time>2025-06-09T13:43:18Z</time>
      </trkpt>
      <trkpt lat="47.24617" lon="4.96753">
        <ele>366.5</ele>
        <time>2025-06-09T13:43:27Z</time>
      </trkpt>
      <trkpt lat="47.2461" lon="4.96744">
        <ele>366.57</ele>
        <time>2025-06-09T13:43:34Z</time>
      </trkpt>
      <trkpt lat="47.24601" lon="4.96739">
        <ele>371.79</ele>
        <time>2025-06-09T13:44:39Z</time>
      </trkpt>
      <trkpt lat="47.24593" lon="4.96733">
        <ele>372.46</ele>
        <time>2025-06-09T13:45:32Z</time>
      </trkpt>
      <trkpt lat="47.24584" lon="4.96728">
        <ele>370.91</ele>
        <time>2025-06-09T13:45:43Z</time>
      </trkpt>
      <trkpt lat="47.24576" lon="4.96719">
        <ele>370.43</ele>
        <time>2025-06-09T13:46:03Z</time>
      </trkpt>
      <trkpt lat="47.24573" lon="4.96707">
        <ele>372.41</ele>
        <time>2025-06-09T13:46:11Z</time>
      </trkpt>
      <trkpt lat="47.24569" lon="4.96694">
        <ele>373.72</ele>
        <time>2025-06-09T13:46:21Z</time>
      </trkpt>
      <trkpt lat="47.24565" lon="4.96682">
        <ele>374.26</ele>
        <time>2025-06-09T13:46:30Z</time>
      </trkpt>
      <trkpt lat="47.24567" lon="4.96668">
        <ele>373.58</ele>
        <time>2025-06-09T13:46:40Z</time>
      </trkpt>
      <trkpt lat="47.24567" lon="4.96655">
        <ele>375.17</ele>
        <time>2025-06-09T13:46:51Z</time>
      </trkpt>
      <trkpt lat="47.24572" lon="4.96642">
        <ele>374.78</ele>
        <time>2025-06-09T13:47:00Z</time>
      </trkpt>
      <trkpt lat="47.24573" lon="4.96629">
        <ele>374.29</ele>
        <time>2025-06-09T13:47:07Z</time>
      </trkpt>
      <trkpt lat="47.24572" lon="4.96614">
        <ele>376.27</ele>
        <time>2025-06-09T13:47:15Z</time>
      </trkpt>
      <trkpt lat="47.24571" lon="4.966">
        <ele>376.67</ele>
        <time>2025-06-09T13:47:23Z</time>
      </trkpt>
      <trkpt lat="47.24571" lon="4.96586">
        <ele>379.87</ele>
        <time>2025-06-09T13:47:31Z</time>
      </trkpt>
      <trkpt lat="47.24573" lon="4.96572">
        <ele>379.71</ele>
        <time>2025-06-09T13:47:39Z</time>
      </trkpt>
      <trkpt lat="47.2458" lon="4.96563">
        <ele>379.26</ele>
        <time>2025-06-09T13:47:47Z</time>
      </trkpt>
      <trkpt lat="47.24583" lon="4.9655">
        <ele>377.37</ele>
        <time>2025-06-09T13:48:18Z</time>
      </trkpt>
      <trkpt lat="47.24574" lon="4.96545">
        <ele>380.91</ele>
        <time>2025-06-09T13:48:43Z</time>
      </trkpt>
      <trkpt lat="47.24568" lon="4.9656">
        <ele>378.04</ele>
        <time>2025-06-09T13:48:52Z</time>
      </trkpt>
      <trkpt lat="47.24572" lon="4.96578">
        <ele>377.56</ele>
        <time>2025-06-09T13:48:57Z</time>
      </trkpt>
      <trkpt lat="47.24574" lon="4.96596">
        <ele>376.43</ele>
        <time>2025-06-09T13:49:02Z</time>
      </trkpt>
      <trkpt lat="47.24574" lon="4.96611">
        <ele>375.98</ele>
        <time>2025-06-09T13:49:06Z</time>
      </trkpt>
      <trkpt lat="47.24573" lon="4.96627">
        <ele>374.65</ele>
        <time>2025-06-09T13:49:10Z</time>
      </trkpt>
      <trkpt lat="47.24572" lon="4.96641">
        <ele>373.21</ele>
        <time>2025-06-09T13:49:14Z</time>
      </trkpt>
      <trkpt lat="47.24569" lon="4.96657">
        <ele>373.84</ele>
        <time>2025-06-09T13:49:18Z</time>
      </trkpt>
      <trkpt lat="47.24568" lon="4.96673">
        <ele>374.19</ele>
        <time>2025-06-09T13:49:21Z</time>
      </trkpt>
      <trkpt lat="47.24571" lon="4.96687">
        <ele>373.84</ele>
        <time>2025-06-09T13:49:23Z</time>
      </trkpt>
      <trkpt lat="47.24573" lon="4.96701">
        <ele>373.72</ele>
        <time>2025-06-09T13:49:25Z</time>
      </trkpt>
      <trkpt lat="47.24577" lon="4.96714">
        <ele>373.49</ele>
        <time>2025-06-09T13:49:27Z</time>
      </trkpt>
      <trkpt lat="47.24585" lon="4.9673">
        <ele>372.68</ele>
        <time>2025-06-09T13:49:30Z</time>
      </trkpt>
      <trkpt lat="47.24594" lon="4.96736">
        <ele>371.61</ele>
        <time>2025-06-09T13:49:32Z</time>
      </trkpt>
      <trkpt lat="47.24603" lon="4.9674">
        <ele>370.17</ele>
        <time>2025-06-09T13:49:34Z</time>
      </trkpt>
      <trkpt lat="47.24612" lon="4.96745">
        <ele>369.61</ele>
        <time>2025-06-09T13:49:36Z</time>
      </trkpt>
      <trkpt lat="47.2462" lon="4.96759">
        <ele>367.07</ele>
        <time>2025-06-09T13:49:39Z</time>
      </trkpt>
      <trkpt lat="47.24624" lon="4.96771">
        <ele>366.73</ele>
        <time>2025-06-09T13:49:41Z</time>
      </trkpt>
      <trkpt lat="47.24625" lon="4.96791">
        <ele>366.62</ele>
        <time>2025-06-09T13:49:44Z</time>
      </trkpt>
      <trkpt lat="47.24625" lon="4.96805">
        <ele>364.07</ele>
        <time>2025-06-09T13:49:46Z</time>
      </trkpt>
    </trkseg>
  </trk>
</gpx>